KLAF/LAF METAR and TAF weather

Enter ICAO airport designator
Station Type Date Time Source
KLAF METAR 2019/09/21 20:54 UTC NOAA

KLAF 212054Z VRB06KT 10SM FEW120 28/18 A3010 RMK AO2 RAB19E31 SLP188 P0000 60000 T02780183 58015 $


Station Type Date Time Source
KLAF Decoded METAR 2019/09/21 20:54 UTC NOAA

LAFAYETTE PURDUE UNIV AIRPORT , IN, United States (KLAF) 40-25N 86-57W 182M
Sep 21, 2019 - 04:54 PM EDT / 2019.09.21 2054 UTC
Wind: Variable at 7 MPH (6 KT):0
Visibility: 10 mile(s):0
Sky conditions: mostly clear
Precipitation last hour: A trace
Temperature: 82.0 F (27.8 C)
Dew Point: 64.9 F (18.3 C)
Relative Humidity: 56%
Pressure (altimeter): 30.1 in. Hg (1019 hPa)
Pressure tendency: 0.04 inches (1.5 hPa) lower than three hours ago
ob: KLAF 212054Z VRB06KT 10SM FEW120 28/18 A3010 RMK AO2 RAB19E31 SLP188 P0000 60000 T02780183 58015
cycle: 21

Station Type Date Time Source
KLAF TAF 2019/09/21 18:22 UTC NOAA

TAF KLAF 211720Z 2118/2218 21013KT P6SM SCT040 BKN180
FM220000 19008KT P6SM BKN180
FM221200 20010G22KT P6SM SCT100
FM221700 22014G25KT P6SM BKN150

Example: see airport list